sensor_id;sensor_type;location;lat;lon;timestamp;P1;durP1;ratioP1;P2;durP2;ratioP2
70929;SDS011;58588;48.102;19.682;2022-12-26T00:01:21;34.60;;;17.10;;
70929;SDS011;58588;48.102;19.682;2022-12-26T00:04:26;33.03;;;15.43;;
70929;SDS011;58588;48.102;19.682;2022-12-26T00:07:28;36.42;;;16.58;;
70929;SDS011;58588;48.102;19.682;2022-12-26T00:10:32;36.50;;;16.52;;
70929;SDS011;58588;48.102;19.682;2022-12-26T00:13:34;33.20;;;15.70;;
70929;SDS011;58588;48.102;19.682;2022-12-26T00:16:37;32.07;;;16.40;;
70929;SDS011;58588;48.102;19.682;2022-12-26T00:19:41;37.60;;;16.98;;
70929;SDS011;58588;48.102;19.682;2022-12-26T00:22:44;39.25;;;18.10;;
70929;SDS011;58588;48.102;19.682;2022-12-26T00:25:46;41.63;;;17.05;;
70929;SDS011;58588;48.102;19.682;2022-12-26T00:28:48;40.72;;;19.52;;
70929;SDS011;58588;48.102;19.682;2022-12-26T00:31:50;41.67;;;19.83;;
70929;SDS011;58588;48.102;19.682;2022-12-26T00:34:53;51.03;;;24.05;;
70929;SDS011;58588;48.102;19.682;2022-12-26T00:37:55;49.58;;;23.60;;
70929;SDS011;58588;48.102;19.682;2022-12-26T00:40:57;45.42;;;23.02;;
70929;SDS011;58588;48.102;19.682;2022-12-26T00:43:59;43.05;;;21.95;;
70929;SDS011;58588;48.102;19.682;2022-12-26T00:47:02;41.63;;;20.10;;
70929;SDS011;58588;48.102;19.682;2022-12-26T00:50:07;39.08;;;19.65;;
70929;SDS011;58588;48.102;19.682;2022-12-26T00:53:09;39.30;;;18.48;;
70929;SDS011;58588;48.102;19.682;2022-12-26T00:56:11;36.72;;;17.75;;
70929;SDS011;58588;48.102;19.682;2022-12-26T00:59:14;35.67;;;17.13;;
70929;SDS011;58588;48.102;19.682;2022-12-26T01:02:16;47.17;;;23.33;;
70929;SDS011;58588;48.102;19.682;2022-12-26T01:05:44;40.78;;;18.90;;
70929;SDS011;58588;48.102;19.682;2022-12-26T01:08:47;38.60;;;18.13;;
70929;SDS011;58588;48.102;19.682;2022-12-26T01:11:49;34.50;;;16.48;;
70929;SDS011;58588;48.102;19.682;2022-12-26T01:14:52;32.08;;;15.55;;
70929;SDS011;58588;48.102;19.682;2022-12-26T01:17:56;36.23;;;16.83;;
70929;SDS011;58588;48.102;19.682;2022-12-26T01:21:01;35.90;;;16.35;;
70929;SDS011;58588;48.102;19.682;2022-12-26T01:24:05;37.20;;;17.17;;
70929;SDS011;58588;48.102;19.682;2022-12-26T01:27:07;38.30;;;19.30;;
70929;SDS011;58588;48.102;19.682;2022-12-26T01:30:10;38.47;;;18.85;;
70929;SDS011;58588;48.102;19.682;2022-12-26T01:33:12;36.40;;;17.47;;
70929;SDS011;58588;48.102;19.682;2022-12-26T01:36:17;38.50;;;17.23;;
70929;SDS011;58588;48.102;19.682;2022-12-26T01:39:19;35.67;;;16.48;;
70929;SDS011;58588;48.102;19.682;2022-12-26T01:42:22;32.88;;;16.08;;
70929;SDS011;58588;48.102;19.682;2022-12-26T01:45:27;35.30;;;17.75;;
70929;SDS011;58588;48.102;19.682;2022-12-26T01:48:31;37.67;;;17.13;;
70929;SDS011;58588;48.102;19.682;2022-12-26T01:51:37;34.97;;;17.67;;
70929;SDS011;58588;48.102;19.682;2022-12-26T01:54:42;35.42;;;18.27;;
70929;SDS011;58588;48.102;19.682;2022-12-26T01:57:49;33.90;;;16.38;;
70929;SDS011;58588;48.102;19.682;2022-12-26T02:00:55;43.70;;;20.40;;
70929;SDS011;58588;48.102;19.682;2022-12-26T02:03:57;38.67;;;19.57;;
70929;SDS011;58588;48.102;19.682;2022-12-26T02:07:21;32.60;;;16.27;;
70929;SDS011;58588;48.102;19.682;2022-12-26T02:10:24;33.83;;;16.83;;
70929;SDS011;58588;48.102;19.682;2022-12-26T02:13:28;32.60;;;16.45;;
70929;SDS011;58588;48.102;19.682;2022-12-26T02:16:33;33.42;;;17.13;;
70929;SDS011;58588;48.102;19.682;2022-12-26T02:19:39;38.90;;;18.63;;
70929;SDS011;58588;48.102;19.682;2022-12-26T02:30:07;36.92;;;17.60;;
70929;SDS011;58588;48.102;19.682;2022-12-26T02:33:41;41.15;;;17.95;;
70929;SDS011;58588;48.102;19.682;2022-12-26T02:36:55;38.53;;;17.93;;
70929;SDS011;58588;48.102;19.682;2022-12-26T02:40:11;36.22;;;17.42;;
70929;SDS011;58588;48.102;19.682;2022-12-26T02:43:27;39.22;;;17.98;;
70929;SDS011;58588;48.102;19.682;2022-12-26T02:46:38;34.22;;;17.02;;
70929;SDS011;58588;48.102;19.682;2022-12-26T02:50:06;39.00;;;16.98;;
70929;SDS011;58588;48.102;19.682;2022-12-26T02:53:34;36.23;;;17.07;;
70929;SDS011;58588;48.102;19.682;2022-12-26T02:57:04;36.38;;;17.33;;
70929;SDS011;58588;48.102;19.682;2022-12-26T03:00:26;31.80;;;15.75;;
70929;SDS011;58588;48.102;19.682;2022-12-26T03:03:48;33.97;;;15.82;;
70929;SDS011;58588;48.102;19.682;2022-12-26T03:07:11;34.45;;;16.05;;
70929;SDS011;58588;48.102;19.682;2022-12-26T03:10:34;36.67;;;16.93;;
70929;SDS011;58588;48.102;19.682;2022-12-26T03:13:55;43.38;;;17.88;;
70929;SDS011;58588;48.102;19.682;2022-12-26T03:17:07;42.72;;;18.00;;
70929;SDS011;58588;48.102;19.682;2022-12-26T03:20:24;38.83;;;17.42;;
70929;SDS011;58588;48.102;19.682;2022-12-26T03:23:29;46.30;;;23.38;;
70929;SDS011;58588;48.102;19.682;2022-12-26T03:26:34;36.10;;;17.43;;
70929;SDS011;58588;48.102;19.682;2022-12-26T03:29:39;38.85;;;18.08;;
70929;SDS011;58588;48.102;19.682;2022-12-26T03:32:59;37.63;;;16.88;;
70929;SDS011;58588;48.102;19.682;2022-12-26T03:36:02;34.67;;;15.73;;
70929;SDS011;58588;48.102;19.682;2022-12-26T03:39:08;33.55;;;15.95;;
70929;SDS011;58588;48.102;19.682;2022-12-26T03:42:19;38.47;;;16.83;;
70929;SDS011;58588;48.102;19.682;2022-12-26T03:45:47;33.33;;;15.68;;
70929;SDS011;58588;48.102;19.682;2022-12-26T03:49:14;36.30;;;15.73;;
70929;SDS011;58588;48.102;19.682;2022-12-26T03:52:42;34.92;;;16.13;;
70929;SDS011;58588;48.102;19.682;2022-12-26T03:56:21;33.25;;;15.85;;
70929;SDS011;58588;48.102;19.682;2022-12-26T03:59:50;34.90;;;15.57;;
70929;SDS011;58588;48.102;19.682;2022-12-26T04:03:13;35.08;;;16.00;;
70929;SDS011;58588;48.102;19.682;2022-12-26T04:06:43;37.38;;;15.90;;
70929;SDS011;58588;48.102;19.682;2022-12-26T04:10:08;31.77;;;15.30;;
70929;SDS011;58588;48.102;19.682;2022-12-26T04:13:31;36.15;;;16.13;;
70929;SDS011;58588;48.102;19.682;2022-12-26T04:16:59;36.07;;;15.70;;
70929;SDS011;58588;48.102;19.682;2022-12-26T04:20:26;37.38;;;16.30;;
70929;SDS011;58588;48.102;19.682;2022-12-26T04:23:34;33.63;;;15.45;;
70929;SDS011;58588;48.102;19.682;2022-12-26T04:27:04;33.13;;;15.43;;
70929;SDS011;58588;48.102;19.682;2022-12-26T04:30:28;34.97;;;16.40;;
70929;SDS011;58588;48.102;19.682;2022-12-26T04:33:52;36.20;;;16.90;;
70929;SDS011;58588;48.102;19.682;2022-12-26T04:37:17;34.83;;;16.52;;
70929;SDS011;58588;48.102;19.682;2022-12-26T04:40:43;37.25;;;17.05;;
70929;SDS011;58588;48.102;19.682;2022-12-26T04:44:08;33.88;;;16.05;;
70929;SDS011;58588;48.102;19.682;2022-12-26T04:47:13;38.97;;;17.33;;
70929;SDS011;58588;48.102;19.682;2022-12-26T04:50:15;32.73;;;16.57;;
70929;SDS011;58588;48.102;19.682;2022-12-26T04:53:16;36.17;;;16.63;;
70929;SDS011;58588;48.102;19.682;2022-12-26T04:56:19;37.97;;;16.83;;
70929;SDS011;58588;48.102;19.682;2022-12-26T04:59:22;35.25;;;16.90;;
70929;SDS011;58588;48.102;19.682;2022-12-26T05:02:25;33.15;;;16.30;;
70929;SDS011;58588;48.102;19.682;2022-12-26T05:05:47;38.17;;;17.00;;
70929;SDS011;58588;48.102;19.682;2022-12-26T05:09:08;35.78;;;16.67;;
70929;SDS011;58588;48.102;19.682;2022-12-26T05:12:29;42.65;;;20.10;;
70929;SDS011;58588;48.102;19.682;2022-12-26T05:15:32;39.78;;;18.08;;
70929;SDS011;58588;48.102;19.682;2022-12-26T05:18:55;40.25;;;18.55;;
70929;SDS011;58588;48.102;19.682;2022-12-26T05:22:14;44.80;;;21.67;;
70929;SDS011;58588;48.102;19.682;2022-12-26T05:25:39;39.53;;;18.55;;
70929;SDS011;58588;48.102;19.682;2022-12-26T05:29:01;36.08;;;16.70;;
70929;SDS011;58588;48.102;19.682;2022-12-26T05:32:05;33.50;;;16.40;;
70929;SDS011;58588;48.102;19.682;2022-12-26T05:35:07;35.95;;;15.25;;
70929;SDS011;58588;48.102;19.682;2022-12-26T05:38:09;33.73;;;14.90;;
70929;SDS011;58588;48.102;19.682;2022-12-26T05:41:13;33.85;;;15.85;;
70929;SDS011;58588;48.102;19.682;2022-12-26T05:44:15;32.15;;;14.85;;
70929;SDS011;58588;48.102;19.682;2022-12-26T05:47:18;34.20;;;15.38;;
70929;SDS011;58588;48.102;19.682;2022-12-26T05:50:20;34.10;;;16.17;;
70929;SDS011;58588;48.102;19.682;2022-12-26T05:53:22;34.47;;;15.10;;
70929;SDS011;58588;48.102;19.682;2022-12-26T05:56:24;31.67;;;14.35;;
70929;SDS011;58588;48.102;19.682;2022-12-26T05:59:27;35.28;;;15.27;;
70929;SDS011;58588;48.102;19.682;2022-12-26T06:02:30;33.50;;;14.77;;
70929;SDS011;58588;48.102;19.682;2022-12-26T06:05:32;30.85;;;14.25;;
70929;SDS011;58588;48.102;19.682;2022-12-26T06:08:34;33.67;;;15.47;;
70929;SDS011;58588;48.102;19.682;2022-12-26T06:11:36;33.97;;;15.25;;
70929;SDS011;58588;48.102;19.682;2022-12-26T06:14:38;34.03;;;15.23;;
70929;SDS011;58588;48.102;19.682;2022-12-26T06:17:42;34.53;;;15.55;;
70929;SDS011;58588;48.102;19.682;2022-12-26T06:20:44;37.10;;;16.83;;
70929;SDS011;58588;48.102;19.682;2022-12-26T06:23:46;33.57;;;14.73;;
70929;SDS011;58588;48.102;19.682;2022-12-26T06:26:49;29.67;;;14.70;;
70929;SDS011;58588;48.102;19.682;2022-12-26T06:29:51;31.33;;;14.88;;
70929;SDS011;58588;48.102;19.682;2022-12-26T06:32:54;34.20;;;14.88;;
70929;SDS011;58588;48.102;19.682;2022-12-26T06:36:00;34.55;;;15.23;;
70929;SDS011;58588;48.102;19.682;2022-12-26T06:39:06;30.90;;;15.10;;
70929;SDS011;58588;48.102;19.682;2022-12-26T06:42:08;32.47;;;14.90;;
70929;SDS011;58588;48.102;19.682;2022-12-26T06:45:10;32.38;;;15.02;;
70929;SDS011;58588;48.102;19.682;2022-12-26T06:48:13;35.22;;;14.98;;
70929;SDS011;58588;48.102;19.682;2022-12-26T06:51:16;28.42;;;13.88;;
70929;SDS011;58588;48.102;19.682;2022-12-26T06:54:21;29.77;;;13.07;;
70929;SDS011;58588;48.102;19.682;2022-12-26T06:57:23;28.67;;;13.93;;
70929;SDS011;58588;48.102;19.682;2022-12-26T07:00:25;32.30;;;14.95;;
70929;SDS011;58588;48.102;19.682;2022-12-26T07:03:28;270.73;;;101.45;;
70929;SDS011;58588;48.102;19.682;2022-12-26T07:06:31;61.15;;;26.88;;
70929;SDS011;58588;48.102;19.682;2022-12-26T07:09:34;31.07;;;13.37;;
70929;SDS011;58588;48.102;19.682;2022-12-26T07:12:36;32.88;;;14.98;;
70929;SDS011;58588;48.102;19.682;2022-12-26T07:15:38;33.83;;;14.73;;
70929;SDS011;58588;48.102;19.682;2022-12-26T07:18:42;33.47;;;14.43;;
70929;SDS011;58588;48.102;19.682;2022-12-26T07:21:44;32.65;;;14.07;;
70929;SDS011;58588;48.102;19.682;2022-12-26T07:24:46;32.77;;;15.97;;
70929;SDS011;58588;48.102;19.682;2022-12-26T07:27:51;34.13;;;15.23;;
70929;SDS011;58588;48.102;19.682;2022-12-26T07:30:54;35.55;;;19.60;;
70929;SDS011;58588;48.102;19.682;2022-12-26T07:33:58;45.97;;;25.70;;
70929;SDS011;58588;48.102;19.682;2022-12-26T07:37:00;34.92;;;15.80;;
70929;SDS011;58588;48.102;19.682;2022-12-26T07:40:02;35.03;;;14.80;;
70929;SDS011;58588;48.102;19.682;2022-12-26T07:43:05;32.38;;;14.48;;
70929;SDS011;58588;48.102;19.682;2022-12-26T07:46:07;32.88;;;14.40;;
70929;SDS011;58588;48.102;19.682;2022-12-26T07:49:12;38.05;;;19.95;;
70929;SDS011;58588;48.102;19.682;2022-12-26T07:52:14;37.55;;;15.20;;
70929;SDS011;58588;48.102;19.682;2022-12-26T07:55:22;31.87;;;14.10;;
70929;SDS011;58588;48.102;19.682;2022-12-26T07:58:24;37.97;;;17.02;;
70929;SDS011;58588;48.102;19.682;2022-12-26T08:01:26;44.15;;;23.67;;
70929;SDS011;58588;48.102;19.682;2022-12-26T08:04:31;35.65;;;16.10;;
70929;SDS011;58588;48.102;19.682;2022-12-26T08:07:40;37.25;;;15.77;;
70929;SDS011;58588;48.102;19.682;2022-12-26T08:10:42;33.77;;;13.27;;
70929;SDS011;58588;48.102;19.682;2022-12-26T08:13:46;34.83;;;15.73;;
70929;SDS011;58588;48.102;19.682;2022-12-26T08:16:51;32.20;;;13.18;;
70929;SDS011;58588;48.102;19.682;2022-12-26T08:19:55;32.50;;;13.05;;
70929;SDS011;58588;48.102;19.682;2022-12-26T08:22:57;38.40;;;15.60;;
70929;SDS011;58588;48.102;19.682;2022-12-26T08:26:03;31.30;;;14.27;;
70929;SDS011;58588;48.102;19.682;2022-12-26T08:29:14;35.30;;;14.55;;
70929;SDS011;58588;48.102;19.682;2022-12-26T08:32:19;35.55;;;15.65;;
70929;SDS011;58588;48.102;19.682;2022-12-26T08:35:23;36.97;;;16.80;;
70929;SDS011;58588;48.102;19.682;2022-12-26T08:38:25;35.03;;;16.38;;
70929;SDS011;58588;48.102;19.682;2022-12-26T08:41:27;35.13;;;16.33;;
70929;SDS011;58588;48.102;19.682;2022-12-26T08:44:29;45.78;;;18.88;;
70929;SDS011;58588;48.102;19.682;2022-12-26T08:47:31;34.72;;;14.93;;
70929;SDS011;58588;48.102;19.682;2022-12-26T08:50:34;34.15;;;15.30;;
70929;SDS011;58588;48.102;19.682;2022-12-26T08:53:36;33.17;;;15.25;;
70929;SDS011;58588;48.102;19.682;2022-12-26T08:56:38;37.47;;;15.20;;
70929;SDS011;58588;48.102;19.682;2022-12-26T08:59:41;40.10;;;17.55;;
70929;SDS011;58588;48.102;19.682;2022-12-26T09:02:43;45.63;;;16.98;;
70929;SDS011;58588;48.102;19.682;2022-12-26T09:05:46;43.10;;;18.25;;
70929;SDS011;58588;48.102;19.682;2022-12-26T09:08:48;44.88;;;17.77;;
70929;SDS011;58588;48.102;19.682;2022-12-26T09:11:51;47.27;;;19.20;;
70929;SDS011;58588;48.102;19.682;2022-12-26T09:14:53;44.10;;;17.63;;
70929;SDS011;58588;48.102;19.682;2022-12-26T09:17:55;51.35;;;18.80;;
70929;SDS011;58588;48.102;19.682;2022-12-26T09:20:59;43.35;;;17.65;;
70929;SDS011;58588;48.102;19.682;2022-12-26T09:24:03;40.40;;;16.92;;
70929;SDS011;58588;48.102;19.682;2022-12-26T09:27:07;35.53;;;14.97;;
70929;SDS011;58588;48.102;19.682;2022-12-26T09:30:09;41.08;;;16.48;;
70929;SDS011;58588;48.102;19.682;2022-12-26T09:33:12;40.15;;;16.25;;
70929;SDS011;58588;48.102;19.682;2022-12-26T09:36:16;37.28;;;16.48;;
70929;SDS011;58588;48.102;19.682;2022-12-26T09:39:20;43.60;;;16.48;;
70929;SDS011;58588;48.102;19.682;2022-12-26T09:42:24;46.70;;;16.23;;
70929;SDS011;58588;48.102;19.682;2022-12-26T09:45:41;39.40;;;15.77;;
70929;SDS011;58588;48.102;19.682;2022-12-26T09:48:51;43.33;;;15.40;;
70929;SDS011;58588;48.102;19.682;2022-12-26T09:52:01;42.25;;;15.80;;
70929;SDS011;58588;48.102;19.682;2022-12-26T09:55:18;46.28;;;16.33;;
70929;SDS011;58588;48.102;19.682;2022-12-26T09:58:33;45.13;;;18.07;;
70929;SDS011;58588;48.102;19.682;2022-12-26T10:01:41;47.30;;;17.77;;
70929;SDS011;58588;48.102;19.682;2022-12-26T10:04:43;53.00;;;19.17;;
70929;SDS011;58588;48.102;19.682;2022-12-26T10:07:48;51.85;;;18.05;;
70929;SDS011;58588;48.102;19.682;2022-12-26T10:10:58;49.53;;;20.02;;
70929;SDS011;58588;48.102;19.682;2022-12-26T10:14:03;55.73;;;21.47;;
70929;SDS011;58588;48.102;19.682;2022-12-26T10:17:14;55.83;;;20.83;;
70929;SDS011;58588;48.102;19.682;2022-12-26T10:20:25;45.78;;;19.23;;
70929;SDS011;58588;48.102;19.682;2022-12-26T10:23:33;50.85;;;21.25;;
70929;SDS011;58588;48.102;19.682;2022-12-26T10:26:38;58.42;;;20.88;;
70929;SDS011;58588;48.102;19.682;2022-12-26T10:29:45;55.67;;;19.63;;
70929;SDS011;58588;48.102;19.682;2022-12-26T10:32:52;55.83;;;20.65;;
70929;SDS011;58588;48.102;19.682;2022-12-26T10:35:57;66.22;;;22.33;;
70929;SDS011;58588;48.102;19.682;2022-12-26T10:39:04;50.35;;;20.83;;
70929;SDS011;58588;48.102;19.682;2022-12-26T10:42:17;50.63;;;18.63;;
70929;SDS011;58588;48.102;19.682;2022-12-26T10:45:26;56.47;;;19.43;;
70929;SDS011;58588;48.102;19.682;2022-12-26T10:48:33;60.53;;;23.33;;
70929;SDS011;58588;48.102;19.682;2022-12-26T10:51:36;53.20;;;19.80;;
70929;SDS011;58588;48.102;19.682;2022-12-26T10:54:39;56.97;;;19.38;;
70929;SDS011;58588;48.102;19.682;2022-12-26T10:57:43;51.92;;;19.83;;
70929;SDS011;58588;48.102;19.682;2022-12-26T11:00:46;57.83;;;19.33;;
70929;SDS011;58588;48.102;19.682;2022-12-26T11:03:52;56.70;;;19.15;;
70929;SDS011;58588;48.102;19.682;2022-12-26T11:06:55;67.38;;;23.05;;
70929;SDS011;58588;48.102;19.682;2022-12-26T11:09:59;82.55;;;26.88;;
70929;SDS011;58588;48.102;19.682;2022-12-26T11:13:03;94.80;;;33.33;;
70929;SDS011;58588;48.102;19.682;2022-12-26T11:16:08;89.50;;;31.37;;
70929;SDS011;58588;48.102;19.682;2022-12-26T11:19:24;93.35;;;29.35;;
70929;SDS011;58588;48.102;19.682;2022-12-26T11:22:28;84.20;;;29.23;;
70929;SDS011;58588;48.102;19.682;2022-12-26T11:25:32;72.60;;;23.95;;
70929;SDS011;58588;48.102;19.682;2022-12-26T11:28:36;82.47;;;31.85;;
70929;SDS011;58588;48.102;19.682;2022-12-26T11:31:38;70.07;;;22.83;;
70929;SDS011;58588;48.102;19.682;2022-12-26T11:34:45;74.70;;;24.17;;
70929;SDS011;58588;48.102;19.682;2022-12-26T11:37:50;70.05;;;22.55;;
70929;SDS011;58588;48.102;19.682;2022-12-26T11:40:58;85.45;;;29.20;;
70929;SDS011;58588;48.102;19.682;2022-12-26T11:44:21;98.65;;;42.83;;
70929;SDS011;58588;48.102;19.682;2022-12-26T11:47:35;73.50;;;27.43;;
70929;SDS011;58588;48.102;19.682;2022-12-26T11:50:38;74.28;;;26.75;;
70929;SDS011;58588;48.102;19.682;2022-12-26T11:53:45;75.05;;;26.45;;
70929;SDS011;58588;48.102;19.682;2022-12-26T11:56:58;72.93;;;25.15;;
70929;SDS011;58588;48.102;19.682;2022-12-26T12:00:34;72.20;;;24.77;;
70929;SDS011;58588;48.102;19.682;2022-12-26T12:03:39;80.53;;;24.90;;
70929;SDS011;58588;48.102;19.682;2022-12-26T12:06:48;71.65;;;24.27;;
70929;SDS011;58588;48.102;19.682;2022-12-26T12:09:58;72.03;;;25.17;;
70929;SDS011;58588;48.102;19.682;2022-12-26T12:13:11;70.40;;;24.55;;
70929;SDS011;58588;48.102;19.682;2022-12-26T12:16:29;67.15;;;23.60;;
70929;SDS011;58588;48.102;19.682;2022-12-26T12:19:45;68.63;;;22.83;;
70929;SDS011;58588;48.102;19.682;2022-12-26T12:22:58;69.80;;;23.42;;
70929;SDS011;58588;48.102;19.682;2022-12-26T12:26:12;73.63;;;23.65;;
70929;SDS011;58588;48.102;19.682;2022-12-26T12:33:03;71.15;;;23.15;;
70929;SDS011;58588;48.102;19.682;2022-12-26T12:36:26;66.53;;;22.57;;
70929;SDS011;58588;48.102;19.682;2022-12-26T12:39:38;62.78;;;21.23;;
70929;SDS011;58588;48.102;19.682;2022-12-26T12:42:55;57.95;;;19.02;;
70929;SDS011;58588;48.102;19.682;2022-12-26T12:46:07;60.88;;;21.33;;
70929;SDS011;58588;48.102;19.682;2022-12-26T12:49:26;72.85;;;21.05;;
70929;SDS011;58588;48.102;19.682;2022-12-26T12:52:39;73.37;;;21.57;;
70929;SDS011;58588;48.102;19.682;2022-12-26T12:55:54;65.68;;;20.90;;
70929;SDS011;58588;48.102;19.682;2022-12-26T12:59:07;66.97;;;20.65;;
70929;SDS011;58588;48.102;19.682;2022-12-26T13:02:18;57.20;;;20.05;;
70929;SDS011;58588;48.102;19.682;2022-12-26T13:05:28;65.05;;;20.45;;
70929;SDS011;58588;48.102;19.682;2022-12-26T13:08:40;68.57;;;20.73;;
70929;SDS011;58588;48.102;19.682;2022-12-26T13:11:47;66.60;;;22.55;;
70929;SDS011;58588;48.102;19.682;2022-12-26T13:14:55;71.22;;;25.40;;
70929;SDS011;58588;48.102;19.682;2022-12-26T13:18:02;87.75;;;31.98;;
70929;SDS011;58588;48.102;19.682;2022-12-26T13:21:12;82.68;;;31.10;;
70929;SDS011;58588;48.102;19.682;2022-12-26T13:24:16;82.00;;;29.40;;
70929;SDS011;58588;48.102;19.682;2022-12-26T13:27:26;71.55;;;24.80;;
70929;SDS011;58588;48.102;19.682;2022-12-26T13:30:31;67.82;;;22.77;;
70929;SDS011;58588;48.102;19.682;2022-12-26T13:33:34;68.88;;;25.10;;
70929;SDS011;58588;48.102;19.682;2022-12-26T13:36:41;81.78;;;29.23;;
70929;SDS011;58588;48.102;19.682;2022-12-26T13:39:45;73.77;;;27.30;;
70929;SDS011;58588;48.102;19.682;2022-12-26T13:42:48;81.15;;;30.00;;
70929;SDS011;58588;48.102;19.682;2022-12-26T13:49:40;66.80;;;21.23;;
70929;SDS011;58588;48.102;19.682;2022-12-26T13:52:42;69.30;;;24.73;;
70929;SDS011;58588;48.102;19.682;2022-12-26T13:55:46;76.20;;;27.57;;
70929;SDS011;58588;48.102;19.682;2022-12-26T13:58:49;92.03;;;33.20;;
70929;SDS011;58588;48.102;19.682;2022-12-26T14:01:57;84.85;;;30.45;;
70929;SDS011;58588;48.102;19.682;2022-12-26T14:05:18;96.65;;;36.85;;
70929;SDS011;58588;48.102;19.682;2022-12-26T14:08:31;78.50;;;26.77;;
70929;SDS011;58588;48.102;19.682;2022-12-26T14:11:44;65.90;;;23.27;;
70929;SDS011;58588;48.102;19.682;2022-12-26T14:15:04;84.45;;;32.42;;
70929;SDS011;58588;48.102;19.682;2022-12-26T14:18:19;78.47;;;27.45;;
70929;SDS011;58588;48.102;19.682;2022-12-26T14:21:38;71.63;;;22.50;;
70929;SDS011;58588;48.102;19.682;2022-12-26T14:24:54;105.50;;;37.38;;
70929;SDS011;58588;48.102;19.682;2022-12-26T14:28:08;64.67;;;23.93;;
70929;SDS011;58588;48.102;19.682;2022-12-26T14:31:17;86.78;;;31.05;;
70929;SDS011;58588;48.102;19.682;2022-12-26T14:34:40;91.13;;;29.40;;
70929;SDS011;58588;48.102;19.682;2022-12-26T14:38:04;101.13;;;29.70;;
70929;SDS011;58588;48.102;19.682;2022-12-26T14:45:41;87.53;;;26.53;;
70929;SDS011;58588;48.102;19.682;2022-12-26T14:48:56;146.93;;;44.85;;
70929;SDS011;58588;48.102;19.682;2022-12-26T14:52:10;149.10;;;48.03;;
70929;SDS011;58588;48.102;19.682;2022-12-26T14:55:44;95.75;;;28.60;;
70929;SDS011;58588;48.102;19.682;2022-12-26T14:58:48;115.82;;;34.97;;
70929;SDS011;58588;48.102;19.682;2022-12-26T15:01:58;100.53;;;32.40;;
70929;SDS011;58588;48.102;19.682;2022-12-26T15:05:05;114.40;;;34.38;;
70929;SDS011;58588;48.102;19.682;2022-12-26T15:08:17;103.43;;;30.48;;
70929;SDS011;58588;48.102;19.682;2022-12-26T15:11:50;151.57;;;49.97;;
70929;SDS011;58588;48.102;19.682;2022-12-26T15:15:25;102.55;;;31.70;;
70929;SDS011;58588;48.102;19.682;2022-12-26T15:18:46;86.27;;;26.27;;
70929;SDS011;58588;48.102;19.682;2022-12-26T15:22:27;87.95;;;24.95;;
70929;SDS011;58588;48.102;19.682;2022-12-26T15:29:43;101.85;;;29.13;;
70929;SDS011;58588;48.102;19.682;2022-12-26T15:33:03;89.75;;;26.05;;
70929;SDS011;58588;48.102;19.682;2022-12-26T15:36:15;107.17;;;27.70;;
70929;SDS011;58588;48.102;19.682;2022-12-26T15:39:26;88.80;;;28.17;;
70929;SDS011;58588;48.102;19.682;2022-12-26T15:42:39;116.07;;;29.27;;
70929;SDS011;58588;48.102;19.682;2022-12-26T15:45:52;105.45;;;29.13;;
70929;SDS011;58588;48.102;19.682;2022-12-26T15:49:17;108.28;;;29.95;;
70929;SDS011;58588;48.102;19.682;2022-12-26T15:52:35;105.67;;;30.30;;
70929;SDS011;58588;48.102;19.682;2022-12-26T15:55:54;97.47;;;29.75;;
70929;SDS011;58588;48.102;19.682;2022-12-26T16:02:58;108.50;;;29.58;;
70929;SDS011;58588;48.102;19.682;2022-12-26T16:06:27;108.15;;;29.13;;
70929;SDS011;58588;48.102;19.682;2022-12-26T16:09:43;107.13;;;32.77;;
70929;SDS011;58588;48.102;19.682;2022-12-26T16:12:54;99.25;;;30.98;;
70929;SDS011;58588;48.102;19.682;2022-12-26T16:15:59;116.65;;;33.60;;
70929;SDS011;58588;48.102;19.682;2022-12-26T16:19:16;106.38;;;31.85;;
70929;SDS011;58588;48.102;19.682;2022-12-26T16:22:23;104.80;;;31.42;;
70929;SDS011;58588;48.102;19.682;2022-12-26T16:25:50;113.07;;;36.03;;
70929;SDS011;58588;48.102;19.682;2022-12-26T16:28:54;100.05;;;32.17;;
70929;SDS011;58588;48.102;19.682;2022-12-26T16:32:01;105.15;;;31.92;;
70929;SDS011;58588;48.102;19.682;2022-12-26T16:35:14;90.00;;;29.50;;
70929;SDS011;58588;48.102;19.682;2022-12-26T16:38:20;100.72;;;30.45;;
70929;SDS011;58588;48.102;19.682;2022-12-26T16:41:28;88.67;;;28.00;;
70929;SDS011;58588;48.102;19.682;2022-12-26T16:44:34;96.97;;;30.20;;
70929;SDS011;58588;48.102;19.682;2022-12-26T16:47:38;93.47;;;32.20;;
70929;SDS011;58588;48.102;19.682;2022-12-26T16:50:45;119.95;;;36.30;;
70929;SDS011;58588;48.102;19.682;2022-12-26T16:53:49;155.55;;;47.20;;
70929;SDS011;58588;48.102;19.682;2022-12-26T16:56:52;135.30;;;45.80;;
70929;SDS011;58588;48.102;19.682;2022-12-26T17:00:02;124.32;;;44.05;;
70929;SDS011;58588;48.102;19.682;2022-12-26T17:03:06;135.95;;;44.22;;
70929;SDS011;58588;48.102;19.682;2022-12-26T17:09:58;124.32;;;45.10;;
70929;SDS011;58588;48.102;19.682;2022-12-26T17:13:02;135.47;;;47.57;;
70929;SDS011;58588;48.102;19.682;2022-12-26T17:16:14;137.23;;;48.30;;
70929;SDS011;58588;48.102;19.682;2022-12-26T17:19:17;139.32;;;46.28;;
70929;SDS011;58588;48.102;19.682;2022-12-26T17:22:27;129.57;;;44.75;;
70929;SDS011;58588;48.102;19.682;2022-12-26T17:25:35;137.65;;;47.75;;
70929;SDS011;58588;48.102;19.682;2022-12-26T17:28:37;148.07;;;48.97;;
70929;SDS011;58588;48.102;19.682;2022-12-26T17:31:40;140.77;;;46.78;;
70929;SDS011;58588;48.102;19.682;2022-12-26T17:34:44;146.45;;;45.67;;
70929;SDS011;58588;48.102;19.682;2022-12-26T17:37:49;132.77;;;41.95;;
70929;SDS011;58588;48.102;19.682;2022-12-26T17:44:32;124.43;;;38.47;;
70929;SDS011;58588;48.102;19.682;2022-12-26T17:47:35;141.32;;;47.92;;
70929;SDS011;58588;48.102;19.682;2022-12-26T17:50:38;119.97;;;40.70;;
70929;SDS011;58588;48.102;19.682;2022-12-26T17:53:44;114.03;;;36.97;;
70929;SDS011;58588;48.102;19.682;2022-12-26T17:56:48;107.10;;;35.38;;
70929;SDS011;58588;48.102;19.682;2022-12-26T17:59:51;105.03;;;35.20;;
70929;SDS011;58588;48.102;19.682;2022-12-26T18:02:54;116.85;;;37.78;;
70929;SDS011;58588;48.102;19.682;2022-12-26T18:05:57;81.68;;;29.38;;
70929;SDS011;58588;48.102;19.682;2022-12-26T18:09:00;97.50;;;34.10;;
70929;SDS011;58588;48.102;19.682;2022-12-26T18:12:03;105.63;;;35.00;;
70929;SDS011;58588;48.102;19.682;2022-12-26T18:15:05;97.33;;;33.00;;
70929;SDS011;58588;48.102;19.682;2022-12-26T18:18:09;82.38;;;30.13;;
70929;SDS011;58588;48.102;19.682;2022-12-26T18:21:22;68.90;;;25.45;;
70929;SDS011;58588;48.102;19.682;2022-12-26T18:24:25;65.50;;;23.65;;
70929;SDS011;58588;48.102;19.682;2022-12-26T18:27:28;82.55;;;29.27;;
70929;SDS011;58588;48.102;19.682;2022-12-26T18:30:32;91.03;;;32.20;;
70929;SDS011;58588;48.102;19.682;2022-12-26T18:33:34;110.68;;;38.45;;
70929;SDS011;58588;48.102;19.682;2022-12-26T18:36:36;96.22;;;36.17;;
70929;SDS011;58588;48.102;19.682;2022-12-26T18:39:41;126.00;;;43.97;;